Time;durP1;ratioP1;P1;durP2;ratioP2;P2;SDS_P1;SDS_P2;PMS_P1;PMS_P2;Temp;Humidity;BMP_temperature;BMP_pressure;BME280_temperature;BME280_humidity;BME280_pressure;Samples;Min_cycle;Max_cycle;Signal;HPM_P1;HPM_P2
2023/03/02 00:01:48;;;;;;;7.27;4.33;;;;;;;5.71;100.00;95491.56;5001272;28;20304;-77
2023/03/02 00:04:17;;;;;;;8.00;4.63;;;;;;;5.65;100.00;95489.59;5018946;28;20329;-77
2023/03/02 00:06:42;;;;;;;11.93;4.87;;;;;;;5.59;100.00;95479.03;4988937;28;20234;-77
2023/03/02 00:09:08;;;;;;;7.47;4.60;;;;;;;5.61;100.00;95483.09;5010211;28;20226;-77
2023/03/02 00:11:34;;;;;;;8.53;4.70;;;;;;;5.64;100.00;95492.31;5007338;28;20285;-78
2023/03/02 00:13:59;;;;;;;9.47;4.60;;;;;;;5.69;100.00;95492.69;5003599;28;20712;-78
2023/03/02 00:16:25;;;;;;;8.33;4.67;;;;;;;5.72;100.00;95492.38;5002665;28;20240;-77
2023/03/02 00:18:51;;;;;;;7.73;4.53;;;;;;;5.59;100.00;95486.81;4986443;28;20238;-77
2023/03/02 00:21:16;;;;;;;7.00;4.00;;;;;;;5.40;100.00;95478.25;4978367;28;20310;-77
2023/03/02 00:23:42;;;;;;;6.23;3.83;;;;;;;5.28;100.00;95476.06;5003915;28;20241;-77
2023/03/02 00:26:07;;;;;;;5.60;3.80;;;;;;;5.28;100.00;95474.31;5020573;28;20310;-77
2023/03/02 00:28:33;;;;;;;5.87;3.77;;;;;;;5.49;100.00;95473.13;5004142;28;20234;-77
2023/03/02 00:30:58;;;;;;;7.30;5.30;;;;;;;5.33;100.00;95472.06;5003219;28;20303;-78
2023/03/02 00:33:24;;;;;;;17.83;9.53;;;;;;;5.28;100.00;95465.69;4993101;28;20354;-78
2023/03/02 00:35:49;;;;;;;14.27;7.53;;;;;;;5.37;100.00;95465.59;5020009;28;20731;-77
2023/03/02 00:38:15;;;;;;;37.03;19.97;;;;;;;5.27;100.00;95462.31;5002414;28;20588;-78
2023/03/02 00:40:45;;;;;;;47.67;24.40;;;;;;;5.20;100.00;95453.50;5004566;28;20230;-78
2023/03/02 00:43:10;;;;;;;57.40;29.80;;;;;;;5.28;100.00;95448.34;5002148;28;20230;-77
2023/03/02 00:45:36;;;;;;;41.93;24.33;;;;;;;5.27;100.00;95445.91;5009593;28;20226;-77
2023/03/02 00:48:01;;;;;;;43.67;24.80;;;;;;;5.33;100.00;95446.09;5002782;28;20234;-78
2023/03/02 00:50:27;;;;;;;54.53;28.07;;;;;;;5.36;100.00;95455.38;4986603;28;20238;-77
2023/03/02 00:52:52;;;;;;;52.07;27.57;;;;;;;5.38;100.00;95448.25;5007193;28;20236;-78
2023/03/02 00:55:18;;;;;;;49.80;27.37;;;;;;;5.33;100.00;95445.28;5002206;28;20242;-77
2023/03/02 00:57:44;;;;;;;37.47;19.90;;;;;;;5.21;100.00;95439.56;5000669;28;20234;-76
2023/03/02 01:00:10;;;;;;;22.50;13.03;;;;;;;5.24;100.00;95441.03;5010459;28;20602;-77
2023/03/02 01:02:37;;;;;;;13.17;7.30;;;;;;;5.26;100.00;95433.91;5002607;28;20238;-76
2023/03/02 01:05:03;;;;;;;10.27;5.70;;;;;;;5.35;100.00;95427.78;4995293;28;20223;-77
2023/03/02 01:07:28;;;;;;;6.97;3.60;;;;;;;5.20;100.00;95435.34;5011739;28;20227;-77
2023/03/02 01:09:54;;;;;;;6.67;3.80;;;;;;;5.16;100.00;95426.22;5007406;28;20237;-76
2023/03/02 01:12:20;;;;;;;4.23;2.90;;;;;;;5.27;100.00;95428.56;4988050;28;20226;-77
2023/03/02 01:14:47;;;;;;;5.37;2.73;;;;;;;5.13;100.00;95417.94;5020110;28;20234;-76
2023/03/02 01:17:12;;;;;;;4.60;3.13;;;;;;;5.20;100.00;95416.38;5004596;28;20509;-77
2023/03/02 01:19:38;;;;;;;5.30;2.77;;;;;;;5.16;100.00;95413.25;5007109;28;20842;-76
2023/03/02 01:22:03;;;;;;;5.33;3.30;;;;;;;5.24;100.00;95415.09;4987353;28;20318;-77
2023/03/02 01:24:29;;;;;;;5.13;3.30;;;;;;;5.12;100.00;95411.94;5011969;28;20312;-78
2023/03/02 01:26:54;;;;;;;5.83;3.10;;;;;;;5.24;100.00;95418.50;4997482;28;21379;-77
2023/03/02 01:29:20;;;;;;;4.27;3.00;;;;;;;5.33;100.00;95419.34;4998905;28;20235;-77
2023/03/02 01:31:46;;;;;;;4.77;2.80;;;;;;;5.36;100.00;95419.84;4998712;28;20383;-78
2023/03/02 01:34:11;;;;;;;5.37;2.70;;;;;;;5.39;100.00;95423.94;4998830;28;20230;-78
2023/03/02 01:36:36;;;;;;;4.27;2.67;;;;;;;5.25;100.00;95421.91;5006992;28;20230;-77
2023/03/02 01:39:03;;;;;;;2.57;2.30;;;;;;;5.17;100.00;95414.91;5002429;28;20257;-77
2023/03/02 01:41:28;;;;;;;3.67;2.30;;;;;;;5.13;100.00;95413.59;5004548;28;20241;-77
2023/03/02 01:43:53;;;;;;;3.17;2.20;;;;;;;5.08;100.00;95410.63;5013537;28;20928;-77
2023/03/02 01:46:26;;;;;;;3.40;2.53;;;;;;;5.24;100.00;95415.91;5008572;28;20234;-78
2023/03/02 01:49:01;;;;;;;4.00;2.50;;;;;;;5.27;100.00;95413.00;5007773;28;20325;-77
2023/03/02 01:51:27;;;;;;;3.20;2.30;;;;;;;5.27;100.00;95407.81;5010726;28;20238;-77
2023/03/02 01:53:55;;;;;;;3.60;2.30;;;;;;;5.26;100.00;95403.59;5006108;28;20712;-79
2023/03/02 01:56:24;;;;;;;3.33;2.10;;;;;;;5.33;100.00;95414.16;5011772;28;20239;-75
2023/03/02 01:58:51;;;;;;;3.83;2.40;;;;;;;5.49;100.00;95406.44;5007084;28;20231;-77
2023/03/02 02:01:16;;;;;;;3.53;2.33;;;;;;;5.57;100.00;95408.25;4980688;28;20249;-76
2023/03/02 02:03:43;;;;;;;2.87;2.20;;;;;;;5.43;100.00;95409.66;5002978;28;20227;-77
2023/03/02 02:06:16;;;;;;;2.97;2.10;;;;;;;5.16;100.00;95392.50;4981422;28;20287;-76
2023/03/02 02:08:43;;;;;;;4.17;2.17;;;;;;;5.09;100.00;95401.06;5012112;28;20238;-77
2023/03/02 02:11:08;;;;;;;2.93;2.27;;;;;;;5.27;100.00;95400.03;4997926;28;20287;-77
2023/03/02 02:13:33;;;;;;;3.87;2.47;;;;;;;5.31;100.00;95393.56;4988439;28;20239;-78
2023/03/02 02:15:59;;;;;;;5.50;2.47;;;;;;;5.16;100.00;95397.69;5018388;28;20234;-78
2023/03/02 02:18:25;;;;;;;3.87;2.63;;;;;;;5.06;100.00;95394.41;5003454;28;20238;-77
2023/03/02 02:20:51;;;;;;;3.77;2.33;;;;;;;5.25;100.00;95407.13;4995565;28;20226;-77
2023/03/02 02:23:27;;;;;;;7.37;2.60;;;;;;;5.16;100.00;95402.09;4999534;28;20230;-77
2023/03/02 02:25:54;;;;;;;4.93;2.60;;;;;;;4.91;100.00;95405.50;4998146;28;20244;-78
2023/03/02 02:28:41;;;;;;;4.13;2.33;;;;;;;4.98;100.00;95402.13;5015169;28;20312;-77
2023/03/02 02:31:12;;;;;;;5.03;2.60;;;;;;;5.07;100.00;95400.41;5012344;28;20234;-78
2023/03/02 02:33:38;;;;;;;5.13;2.67;;;;;;;5.15;100.00;95400.44;5022159;28;20242;-78
2023/03/02 02:36:06;;;;;;;4.17;2.50;;;;;;;5.07;100.00;95396.03;5021022;28;20222;-76
2023/03/02 02:38:31;;;;;;;3.53;2.50;;;;;;;5.09;100.00;95401.88;5005887;28;20317;-76
2023/03/02 02:40:58;;;;;;;3.87;2.40;;;;;;;5.03;100.00;95401.69;5018210;28;20226;-77
2023/03/02 02:43:23;;;;;;;3.97;2.50;;;;;;;5.06;100.00;95402.19;4994641;28;20237;-76
2023/03/02 02:45:51;;;;;;;4.10;2.50;;;;;;;4.93;100.00;95393.19;4988794;28;20890;-77
2023/03/02 02:48:18;;;;;;;4.10;2.60;;;;;;;4.90;100.00;95385.69;4989804;28;20222;-76
2023/03/02 02:50:44;;;;;;;12.80;6.20;;;;;;;5.09;100.00;95391.50;5021091;28;20231;-76
2023/03/02 02:53:21;;;;;;;28.20;12.37;;;;;;;5.28;100.00;95400.81;4993037;28;20232;-76
2023/03/02 02:55:48;;;;;;;18.17;12.10;;;;;;;5.27;100.00;95402.63;4995263;28;20227;-78
2023/03/02 02:58:45;;;;;;;19.60;12.30;;;;;;;5.29;100.00;95398.09;5002521;28;20295;-76
2023/03/02 03:01:12;;;;;;;32.20;20.37;;;;;;;5.11;100.00;95388.75;5022017;28;20680;-77
2023/03/02 03:03:38;;;;;;;37.73;23.60;;;;;;;5.08;100.00;95384.69;4997164;28;20745;-78
2023/03/02 03:06:11;;;;;;;13.77;9.43;;;;;;;5.05;100.00;95390.19;5004755;28;20226;-76
2023/03/02 03:08:42;;;;;;;8.73;5.90;;;;;;;5.12;100.00;95385.19;4988892;28;20239;-78
2023/03/02 03:11:13;;;;;;;6.67;3.93;;;;;;;5.08;100.00;95386.47;5013279;28;20226;-76
2023/03/02 03:13:39;;;;;;;101.03;36.93;;;;;;;5.08;100.00;95384.69;5009225;28;20242;-77
2023/03/02 03:16:05;;;;;;;75.03;35.97;;;;;;;5.15;100.00;95375.31;4987970;28;20617;-77
2023/03/02 03:18:31;;;;;;;28.63;17.97;;;;;;;5.03;100.00;95384.34;4976438;28;20240;-77
2023/03/02 03:20:56;;;;;;;20.67;12.27;;;;;;;5.03;100.00;95383.53;5264830;23;20243;-72
2023/03/02 03:23:22;;;;;;;21.53;11.43;;;;;;;5.12;100.00;95385.19;4996306;28;20231;-72
2023/03/02 03:25:48;;;;;;;6.23;4.60;;;;;;;5.08;100.00;95381.28;5229464;23;20244;-68
2023/03/02 03:28:13;;;;;;;5.47;4.23;;;;;;;5.07;100.00;95383.06;5026712;28;20237;-69
2023/03/02 03:30:39;;;;;;;4.60;2.90;;;;;;;4.99;100.00;95383.00;5007002;28;20222;-69
2023/03/02 03:33:05;;;;;;;5.80;2.90;;;;;;;5.01;100.00;95382.88;4993850;28;20245;-68
2023/03/02 03:35:30;;;;;;;5.23;2.80;;;;;;;4.99;100.00;95382.22;5005159;28;20234;-67
2023/03/02 03:37:56;;;;;;;3.80;2.20;;;;;;;5.04;100.00;95383.34;5023096;28;20226;-68
2023/03/02 03:40:21;;;;;;;3.53;2.33;;;;;;;5.07;100.00;95388.25;4971968;28;20244;-69
2023/03/02 03:42:47;;;;;;;6.43;3.10;;;;;;;5.08;100.00;95389.06;4986523;28;20238;-68
2023/03/02 03:45:12;;;;;;;5.13;2.40;;;;;;;5.10;100.00;95384.53;5006222;28;20237;-68
2023/03/02 03:47:38;;;;;;;2.70;2.00;;;;;;;5.07;100.00;95384.81;4988462;28;20613;-68
2023/03/02 03:50:04;;;;;;;2.80;2.10;;;;;;;5.14;100.00;95384.06;5004785;28;20226;-68
2023/03/02 03:52:29;;;;;;;2.87;2.20;;;;;;;5.01;100.00;95378.50;4987084;28;20226;-71
2023/03/02 03:54:58;;;;;;;3.37;2.20;;;;;;;4.95;100.00;95383.47;4989234;28;20234;-68
2023/03/02 03:57:25;;;;;;;3.10;2.10;;;;;;;4.86;100.00;95390.41;4987648;28;21137;-68
2023/03/02 03:59:50;;;;;;;3.50;2.20;;;;;;;5.02;100.00;95385.28;4973407;28;20230;-69
2023/03/02 04:02:16;;;;;;;2.93;2.00;;;;;;;5.06;100.00;95385.81;4987288;28;20237;-68
2023/03/02 04:04:41;;;;;;;2.20;1.70;;;;;;;4.98;100.00;95378.81;4986876;28;20230;-68
2023/03/02 04:07:07;;;;;;;2.97;1.83;;;;;;;5.00;100.00;95378.63;5006402;28;20288;-69
2023/03/02 04:09:36;;;;;;;3.23;2.07;;;;;;;5.08;100.00;95387.28;5004811;28;20242;-70
2023/03/02 04:12:02;;;;;;;2.83;2.03;;;;;;;5.17;100.00;95383.75;4985456;28;20234;-69
2023/03/02 04:14:28;;;;;;;3.60;2.30;;;;;;;5.15;100.00;95383.09;4987929;28;20250;-69
2023/03/02 04:16:53;;;;;;;2.87;2.17;;;;;;;5.15;100.00;95384.88;4998865;28;20368;-69
2023/03/02 04:19:19;;;;;;;4.53;2.20;;;;;;;5.05;100.00;95381.59;4984090;28;20372;-67
2023/03/02 04:21:46;;;;;;;4.23;2.50;;;;;;;5.17;100.00;95386.34;5004364;28;20315;-68
2023/03/02 04:24:12;;;;;;;3.73;2.30;;;;;;;5.05;100.00;95385.00;4988460;28;20694;-68
2023/03/02 04:26:39;;;;;;;4.00;2.60;;;;;;;5.02;100.00;95384.47;5001665;28;20273;-69
2023/03/02 04:29:04;;;;;;;4.30;2.60;;;;;;;4.98;100.00;95375.38;4978238;28;20280;-69
2023/03/02 04:31:31;;;;;;;4.97;2.97;;;;;;;4.97;100.00;95379.75;4978675;28;20242;-69
2023/03/02 04:33:57;;;;;;;5.20;3.20;;;;;;;5.00;100.00;95370.84;4970133;28;20250;-68
2023/03/02 04:36:23;;;;;;;5.13;3.30;;;;;;;4.95;100.00;95376.50;4985822;28;20291;-69
2023/03/02 04:38:49;;;;;;;7.03;3.97;;;;;;;4.89;100.00;95371.94;4969598;28;20234;-68
2023/03/02 04:41:15;;;;;;;7.83;4.10;;;;;;;4.93;100.00;95372.44;4971632;28;20829;-69
2023/03/02 04:43:40;;;;;;;7.27;4.33;;;;;;;4.94;100.00;95379.25;4987745;28;20234;-68
2023/03/02 04:46:05;;;;;;;7.37;4.00;;;;;;;4.93;100.00;95388.81;4990714;28;20234;-69
2023/03/02 04:48:31;;;;;;;6.33;4.10;;;;;;;4.94;100.00;95387.88;5005949;28;20223;-68
2023/03/02 04:50:56;;;;;;;6.13;3.90;;;;;;;4.96;100.00;95391.13;4988781;28;20233;-69
2023/03/02 04:53:22;;;;;;;5.40;3.60;;;;;;;5.15;100.00;95400.44;4982880;28;20666;-69
2023/03/02 04:55:47;;;;;;;4.27;3.23;;;;;;;5.12;100.00;95400.75;4989812;28;20313;-69
2023/03/02 04:58:13;;;;;;;6.10;3.70;;;;;;;5.01;100.00;95393.25;4973820;28;20230;-69
2023/03/02 05:00:38;;;;;;;5.33;3.20;;;;;;;4.94;100.00;95389.63;5005422;28;20758;-68
2023/03/02 05:03:04;;;;;;;5.43;3.23;;;;;;;4.78;100.00;95402.50;4983172;28;20345;-69
2023/03/02 05:05:30;;;;;;;4.40;3.10;;;;;;;4.87;100.00;95394.63;4986014;28;20268;-69
2023/03/02 05:07:57;;;;;;;5.70;3.33;;;;;;;4.94;100.00;95392.22;5004581;28;20308;-68
2023/03/02 05:10:24;;;;;;;4.90;3.23;;;;;;;4.82;100.00;95396.03;4981468;28;20250;-68
2023/03/02 05:13:03;;;;;;;5.40;3.30;;;;;;;4.82;100.00;95391.69;4988649;28;20238;-68
2023/03/02 05:15:39;;;;;;;5.63;2.90;;;;;;;4.91;100.00;95393.34;4989617;28;20291;-68
2023/03/02 05:18:06;;;;;;;5.33;2.87;;;;;;;4.89;100.00;95399.66;4985158;28;20238;-70
2023/03/02 05:20:31;;;;;;;4.77;3.00;;;;;;;4.80;100.00;95406.56;5004121;28;20234;-69
2023/03/02 05:23:00;;;;;;;6.23;3.20;;;;;;;5.00;100.00;95397.59;5004824;28;20645;-69
2023/03/02 05:25:27;;;;;;;4.83;3.13;;;;;;;4.97;100.00;95403.09;4988231;28;20242;-70
2023/03/02 05:27:52;;;;;;;5.07;3.40;;;;;;;5.08;100.00;95407.22;5004059;28;20234;-70
2023/03/02 05:30:19;;;;;;;5.97;3.57;;;;;;;5.07;100.00;95406.41;5005184;28;20246;-70
2023/03/02 05:32:45;;;;;;;5.23;3.90;;;;;;;5.10;100.00;95403.50;5003869;28;20226;-70
2023/03/02 05:35:10;;;;;;;4.60;3.60;;;;;;;5.06;100.00;95409.97;5004924;28;21030;-69
2023/03/02 05:37:38;;;;;;;7.57;3.83;;;;;;;5.26;100.00;95413.97;4980170;28;20250;-69
2023/03/02 05:40:05;;;;;;;8.40;5.10;;;;;;;5.31;100.00;95416.91;4972390;28;20223;-70
2023/03/02 05:42:31;;;;;;;21.93;10.73;;;;;;;5.36;100.00;95417.25;5002793;28;20230;-70
2023/03/02 05:44:56;;;;;;;7.93;5.67;;;;;;;5.32;100.00;95425.50;4988343;28;20330;-69
2023/03/02 05:47:21;;;;;;;7.03;5.47;;;;;;;5.34;100.00;95416.59;4986963;28;20731;-69
2023/03/02 05:49:47;;;;;;;9.23;6.67;;;;;;;5.41;100.00;95417.59;5004392;28;20231;-69
2023/03/02 05:52:13;;;;;;;5.80;4.13;;;;;;;5.37;100.00;95418.88;4971067;28;20223;-70
2023/03/02 05:54:38;;;;;;;17.70;12.63;;;;;;;5.37;100.00;95418.06;4986960;28;20246;-68
2023/03/02 05:57:04;;;;;;;10.27;8.30;;;;;;;5.48;100.00;95417.78;4985757;28;20235;-68
2023/03/02 05:59:30;;;;;;;7.80;5.20;;;;;;;5.37;100.00;95421.47;4987492;28;20762;-70
2023/03/02 06:01:57;;;;;;;16.33;8.70;;;;;;;5.32;100.00;95421.16;4982133;28;20722;-70
2023/03/02 06:04:24;;;;;;;12.50;7.00;;;;;;;5.32;100.00;95418.56;4982913;28;20277;-69
2023/03/02 06:06:49;;;;;;;10.10;6.87;;;;;;;5.31;100.00;95421.28;4987109;28;20238;-69
2023/03/02 06:09:15;;;;;;;17.73;10.97;;;;;;;5.45;100.00;95421.50;4987949;28;20238;-69
2023/03/02 06:11:40;;;;;;;10.70;5.77;;;;;;;5.47;100.00;95429.94;5003262;28;20238;-69
2023/03/02 06:14:06;;;;;;;6.33;4.13;;;;;;;5.24;100.00;95431.47;5020185;28;20235;-69
2023/03/02 06:16:32;;;;;;;13.57;8.40;;;;;;;5.33;100.00;95437.50;4995889;28;20249;-69
2023/03/02 06:18:58;;;;;;;11.73;7.90;;;;;;;5.53;100.00;95440.69;4972021;28;20707;-70
2023/03/02 06:21:24;;;;;;;19.77;11.43;;;;;;;5.54;100.00;95443.13;5003456;28;20625;-69
2023/03/02 06:23:49;;;;;;;11.97;7.37;;;;;;;5.61;100.00;95441.56;4989614;28;20239;-69
2023/03/02 06:26:15;;;;;;;11.13;6.83;;;;;;;5.36;100.00;95445.81;5002963;28;20293;-68
2023/03/02 06:28:40;;;;;;;9.57;6.40;;;;;;;5.35;100.00;95444.16;4982808;28;20325;-69
2023/03/02 06:31:06;;;;;;;8.37;5.80;;;;;;;5.40;100.00;95441.94;4981240;28;20230;-69
2023/03/02 06:33:34;;;;;;;11.30;7.30;;;;;;;5.54;100.00;95442.31;4975229;28;20238;-70
2023/03/02 06:36:00;;;;;;;12.87;7.53;;;;;;;5.60;100.00;95450.28;4979025;28;20231;-68
2023/03/02 06:38:26;;;;;;;17.80;11.50;;;;;;;5.75;100.00;95453.13;4979830;28;20336;-68
2023/03/02 06:40:51;;;;;;;9.23;6.10;;;;;;;5.99;100.00;95454.00;4985666;28;20226;-68
2023/03/02 06:43:17;;;;;;;9.23;4.90;;;;;;;5.68;100.00;95449.53;4964228;28;20750;-68
2023/03/02 06:45:42;;;;;;;7.63;5.37;;;;;;;5.66;100.00;95447.06;4985732;28;20230;-68
2023/03/02 06:48:08;;;;;;;12.67;7.17;;;;;;;5.71;100.00;95439.63;5003172;28;20242;-69
2023/03/02 06:50:33;;;;;;;9.03;5.97;;;;;;;5.72;100.00;95441.25;5003337;28;20235;-69
2023/03/02 06:52:59;;;;;;;8.03;5.13;;;;;;;5.87;100.00;95441.50;4982129;28;20237;-69
2023/03/02 06:55:24;;;;;;;9.47;6.10;;;;;;;5.70;100.00;95444.97;4985170;28;20317;-69
2023/03/02 06:57:50;;;;;;;16.30;8.97;;;;;;;5.57;100.00;95445.41;4981340;28;20258;-68
2023/03/02 07:00:16;;;;;;;11.20;7.50;;;;;;;5.67;100.00;95442.69;4986679;28;20595;-68
2023/03/02 07:02:45;;;;;;;13.83;7.37;;;;;;;5.55;100.00;95438.75;4985802;28;20242;-69
2023/03/02 07:05:10;;;;;;;11.43;6.97;;;;;;;5.68;100.00;95439.94;4987954;28;20313;-69
2023/03/02 07:07:36;;;;;;;12.93;6.97;;;;;;;5.99;100.00;95442.84;4987682;28;20706;-68
2023/03/02 07:10:01;;;;;;;10.87;6.93;;;;;;;5.89;100.00;95440.38;5002493;28;20465;-69
2023/03/02 07:12:27;;;;;;;12.47;7.63;;;;;;;5.94;100.00;95438.13;4979868;28;20235;-67
2023/03/02 07:14:52;;;;;;;13.07;7.40;;;;;;;5.71;100.00;95437.03;4982203;28;20257;-68
2023/03/02 07:17:18;;;;;;;10.33;5.90;;;;;;;5.71;100.00;95444.03;5002566;28;20238;-69
2023/03/02 07:19:43;;;;;;;12.03;7.00;;;;;;;5.72;100.00;95440.44;4989926;28;20618;-70
2023/03/02 07:22:09;;;;;;;11.63;6.67;;;;;;;5.78;100.00;95439.81;5002101;28;20238;-68
2023/03/02 07:24:34;;;;;;;9.37;5.87;;;;;;;5.93;100.00;95441.69;4984709;28;20230;-69
2023/03/02 07:27:00;;;;;;;8.90;5.57;;;;;;;5.79;100.00;95439.66;4977273;28;20259;-68
2023/03/02 07:29:25;;;;;;;10.47;6.63;;;;;;;5.86;100.00;95447.66;4979065;28;20985;-69
2023/03/02 07:31:55;;;;;;;12.37;7.60;;;;;;;5.92;100.00;95439.25;5000466;28;20686;-68
2023/03/02 07:34:22;;;;;;;12.07;6.70;;;;;;;6.04;100.00;95440.56;5001689;28;20227;-69
2023/03/02 07:36:48;;;;;;;12.77;6.47;;;;;;;6.29;100.00;95450.03;4962850;28;20293;-68
2023/03/02 07:39:14;;;;;;;9.70;5.30;;;;;;;6.11;100.00;95447.56;4984719;28;20227;-70
2023/03/02 07:41:39;;;;;;;9.07;4.97;;;;;;;6.11;100.00;95438.97;4976500;28;20230;-71
2023/03/02 07:44:05;;;;;;;9.40;5.17;;;;;;;6.28;100.00;95445.00;5011410;28;20231;-70
2023/03/02 07:46:30;;;;;;;11.93;6.00;;;;;;;6.41;100.00;95447.94;4989471;28;20622;-69
2023/03/02 07:48:57;;;;;;;24.23;10.60;;;;;;;6.13;100.00;95444.81;5002728;28;20263;-70
2023/03/02 07:51:23;;;;;;;25.67;12.80;;;;;;;6.21;99.39;95450.00;4973396;28;20699;-70
2023/03/02 07:53:49;;;;;;;35.77;16.80;;;;;;;6.04;99.95;95445.78;4984074;28;20246;-69
2023/03/02 07:56:14;;;;;;;31.03;15.37;;;;;;;6.15;100.00;95448.06;5002375;28;20218;-70
2023/03/02 07:58:40;;;;;;;20.97;10.93;;;;;;;6.37;100.00;95447.47;5000729;28;20592;-71
2023/03/02 08:01:06;;;;;;;13.20;8.10;;;;;;;6.34;99.31;95442.56;4985208;28;20935;-69
2023/03/02 08:03:31;;;;;;;13.20;7.37;;;;;;;6.37;100.00;95437.06;5000525;28;20227;-70
2023/03/02 08:05:57;;;;;;;11.13;6.37;;;;;;;6.34;99.89;95439.97;5002813;28;20223;-70
2023/03/02 08:08:22;;;;;;;12.90;6.67;;;;;;;5.98;100.00;95439.41;4984966;28;20253;-70
2023/03/02 08:10:48;;;;;;;19.10;11.23;;;;;;;6.03;100.00;95439.75;4975841;28;20251;-69
2023/03/02 08:13:13;;;;;;;14.77;7.67;;;;;;;6.15;99.50;95442.88;5002631;28;20223;-70
2023/03/02 08:15:38;;;;;;;20.53;12.23;;;;;;;6.18;99.38;95446.94;4984866;28;20239;-69
2023/03/02 08:18:04;;;;;;;19.17;13.40;;;;;;;6.20;99.96;95437.19;5010233;28;20219;-70
2023/03/02 08:20:29;;;;;;;15.67;9.17;;;;;;;6.08;100.00;95434.09;4992990;28;21131;-72
2023/03/02 08:22:55;;;;;;;48.83;19.13;;;;;;;6.14;100.00;95430.03;4980242;28;20226;-70
2023/03/02 08:25:20;;;;;;;35.40;21.43;;;;;;;6.14;100.00;95433.44;4970918;28;20235;-70
2023/03/02 08:27:46;;;;;;;12.87;8.47;;;;;;;5.98;100.00;95431.63;4979507;28;20292;-69
2023/03/02 08:30:12;;;;;;;20.07;12.60;;;;;;;6.39;100.00;95427.31;4985972;28;20724;-69
2023/03/02 08:32:37;;;;;;;16.00;9.73;;;;;;;6.18;100.00;95428.75;4985956;28;20222;-67
2023/03/02 08:35:03;;;;;;;25.17;15.00;;;;;;;6.35;100.00;95433.81;4986473;28;20249;-69
2023/03/02 08:37:29;;;;;;;21.53;14.10;;;;;;;6.45;100.00;95437.03;4969982;28;20234;-69
2023/03/02 08:39:54;;;;;;;20.03;11.37;;;;;;;6.42;100.00;95432.19;4986277;28;20234;-69
2023/03/02 08:42:20;;;;;;;64.70;25.93;;;;;;;6.63;100.00;95431.72;5002054;28;20238;-69
2023/03/02 08:44:45;;;;;;;41.67;25.03;;;;;;;6.50;100.00;95429.59;5002143;28;20789;-69
2023/03/02 08:47:11;;;;;;;18.17;11.47;;;;;;;6.44;100.00;95425.03;4974671;28;20817;-69
2023/03/02 08:49:39;;;;;;;16.53;10.13;;;;;;;6.55;100.00;95426.50;4982967;28;20262;-69
2023/03/02 08:52:05;;;;;;;15.33;9.53;;;;;;;6.60;100.00;95422.44;4986866;28;20235;-69
2023/03/02 08:54:33;;;;;;;20.87;12.30;;;;;;;6.68;100.00;95432.03;4970267;28;20230;-70
2023/03/02 08:56:58;;;;;;;15.17;10.43;;;;;;;6.56;100.00;95422.94;5001477;28;20767;-69
2023/03/02 08:59:24;;;;;;;38.10;19.10;;;;;;;6.58;100.00;95423.56;4993322;28;20237;-68
2023/03/02 09:01:49;;;;;;;18.13;8.83;;;;;;;6.33;100.00;95422.75;4984588;28;20623;-68
2023/03/02 09:04:15;;;;;;;20.23;10.53;;;;;;;6.28;100.00;95422.41;4985764;28;20758;-68
2023/03/02 09:06:42;;;;;;;20.07;10.77;;;;;;;6.42;100.00;95416.59;4985168;28;20234;-68
2023/03/02 09:09:08;;;;;;;15.13;9.10;;;;;;;6.55;100.00;95411.72;4969818;28;20235;-69
2023/03/02 09:11:33;;;;;;;14.83;8.37;;;;;;;6.56;100.00;95415.13;4986052;28;20354;-68
2023/03/02 09:13:59;;;;;;;12.97;7.93;;;;;;;6.37;100.00;95411.06;4980189;28;20241;-68
2023/03/02 09:16:24;;;;;;;12.00;7.40;;;;;;;6.38;100.00;95412.66;4981138;28;20239;-69
2023/03/02 09:18:50;;;;;;;13.37;7.83;;;;;;;6.40;99.79;95412.53;4978971;28;20304;-68
2023/03/02 09:21:16;;;;;;;14.33;8.67;;;;;;;6.56;99.59;95413.34;4985685;28;20250;-68
2023/03/02 09:23:41;;;;;;;12.87;8.37;;;;;;;6.30;99.94;95419.66;4985345;28;20717;-67
2023/03/02 09:26:07;;;;;;;13.73;9.10;;;;;;;6.44;100.00;95417.25;4982371;28;20223;-68
2023/03/02 09:28:33;;;;;;;15.03;9.47;;;;;;;6.70;99.76;95417.88;4989084;28;20867;-69
2023/03/02 09:31:01;;;;;;;13.77;7.57;;;;;;;6.55;99.95;95414.31;4989959;28;20314;-69
2023/03/02 09:33:27;;;;;;;21.07;10.57;;;;;;;6.47;100.00;95411.69;5006390;28;20241;-69
2023/03/02 09:35:52;;;;;;;13.60;8.40;;;;;;;6.67;100.00;95422.59;5005286;28;20235;-69
2023/03/02 09:38:18;;;;;;;21.13;13.17;;;;;;;6.68;100.00;95417.25;4989869;28;20238;-69
2023/03/02 09:40:52;;;;;;;12.70;8.73;;;;;;;6.52;100.00;95406.81;4982063;28;20234;-69
2023/03/02 09:43:47;;;;;;;11.10;7.40;;;;;;;6.37;100.00;95418.03;5005712;28;20235;-69
2023/03/02 09:46:25;;;;;;;9.23;6.53;;;;;;;6.36;100.00;95412.03;5005854;28;20246;-69
2023/03/02 09:49:02;;;;;;;11.53;7.40;;;;;;;6.54;100.00;95410.06;5004954;28;20235;-69
2023/03/02 09:51:43;;;;;;;14.83;8.13;;;;;;;6.58;100.00;95408.78;4991674;28;20334;-68
2023/03/02 09:54:13;;;;;;;12.73;7.60;;;;;;;6.37;100.00;95400.66;5004816;28;20300;-68
2023/03/02 09:56:42;;;;;;;23.37;13.63;;;;;;;6.49;100.00;95412.38;4988166;28;20253;-69
2023/03/02 09:59:26;;;;;;;11.77;8.40;;;;;;;6.66;100.00;95398.38;4986401;28;20228;-68
2023/03/02 10:01:56;;;;;;;14.03;8.33;;;;;;;6.63;100.00;95400.50;4987740;28;20267;-68
2023/03/02 10:04:37;;;;;;;11.77;7.10;;;;;;;6.50;100.00;95398.38;4988163;28;20296;-68
2023/03/02 10:07:30;;;;;;;18.47;10.03;;;;;;;6.41;100.00;95412.34;4984798;28;20219;-68
2023/03/02 10:10:16;;;;;;;22.17;13.03;;;;;;;6.43;99.68;95413.00;5003090;28;20258;-68
2023/03/02 10:13:04;;;;;;;13.93;9.23;;;;;;;6.41;100.00;95417.56;5002510;28;20267;-68
2023/03/02 10:15:40;;;;;;;11.30;7.23;;;;;;;6.45;100.00;95415.47;5012428;28;20252;-68
2023/03/02 10:18:36;;;;;;;11.67;7.33;;;;;;;6.73;99.54;95411.56;4987901;28;20720;-68
2023/03/02 10:21:14;;;;;;;20.47;10.30;;;;;;;6.77;98.94;95411.06;5020001;28;20229;-68
2023/03/02 10:24:06;;;;;;;11.90;8.40;;;;;;;6.66;97.31;95411.38;5005599;28;20655;-68
2023/03/02 10:26:38;;;;;;;17.30;10.13;;;;;;;6.66;98.59;95400.97;5004999;28;20234;-69
2023/03/02 10:29:38;;;;;;;18.13;10.80;;;;;;;6.48;98.30;95409.91;4988765;28;20231;-69
2023/03/02 10:32:22;;;;;;;12.77;8.67;;;;;;;6.22;98.13;95399.66;4987642;28;20227;-68
2023/03/02 10:34:49;;;;;;;13.07;6.30;;;;;;;6.20;98.96;95406.81;5004880;28;20298;-68
2023/03/02 10:37:20;;;;;;;13.90;7.60;;;;;;;6.39;98.81;95409.13;4967291;28;20237;-68
2023/03/02 10:39:46;;;;;;;14.87;8.13;;;;;;;6.52;98.30;95398.22;4988607;28;20251;-69
2023/03/02 10:42:17;;;;;;;27.07;13.80;;;;;;;6.58;98.06;95393.19;4987324;28;20318;-69
2023/03/02 10:44:48;;;;;;;15.73;9.03;;;;;;;6.63;97.36;95395.28;5003602;28;20242;-69
2023/03/02 10:47:26;;;;;;;15.60;8.70;;;;;;;6.47;97.57;95390.91;4984246;28;20246;-68
2023/03/02 10:49:52;;;;;;;12.43;7.33;;;;;;;6.72;97.76;95389.09;4988365;28;20877;-68
2023/03/02 10:52:26;;;;;;;11.27;6.83;;;;;;;6.84;96.99;95374.78;4986803;28;20787;-69
2023/03/02 10:55:14;;;;;;;9.60;5.40;;;;;;;6.51;96.74;95392.22;4987834;28;20235;-68
2023/03/02 10:57:43;;;;;;;13.17;7.40;;;;;;;6.70;97.01;95381.47;4991967;28;20735;-69
2023/03/02 11:00:10;;;;;;;12.03;6.80;;;;;;;6.90;96.29;95376.75;4971148;28;20715;-69
2023/03/02 11:02:36;;;;;;;12.43;6.83;;;;;;;6.90;96.46;95373.31;5004018;28;20258;-71
2023/03/02 11:05:35;;;;;;;10.70;6.23;;;;;;;7.07;94.84;95382.72;4987503;28;20313;-68
2023/03/02 11:08:03;;;;;;;9.47;5.70;;;;;;;6.78;95.00;95365.84;4999839;28;20234;-69
2023/03/02 11:10:30;;;;;;;11.03;6.37;;;;;;;6.93;95.76;95376.38;4970377;28;20726;-69
2023/03/02 11:12:57;;;;;;;11.03;5.97;;;;;;;7.05;95.41;95369.03;4982006;28;20222;-69
2023/03/02 11:15:26;;;;;;;8.77;5.20;;;;;;;6.68;94.87;95367.84;4975152;28;20235;-68
2023/03/02 11:18:01;;;;;;;12.00;6.23;;;;;;;6.99;94.11;95360.13;5003649;28;20237;-69
2023/03/02 11:20:39;;;;;;;8.53;5.53;;;;;;;6.75;93.97;95358.38;5003960;28;20242;-69
2023/03/02 11:23:13;;;;;;;9.37;5.97;;;;;;;7.06;93.40;95360.25;4978553;28;20265;-68
2023/03/02 11:25:42;;;;;;;9.90;5.73;;;;;;;7.18;93.44;95367.56;4988160;28;20242;-68
2023/03/02 11:28:21;;;;;;;11.37;6.40;;;;;;;7.44;92.88;95355.09;4973551;28;20228;-68
2023/03/02 11:30:48;;;;;;;7.33;4.70;;;;;;;7.22;91.83;95355.00;5006514;28;20797;-68
2023/03/02 11:33:24;;;;;;;8.77;5.53;;;;;;;7.42;92.61;95351.84;4984557;28;20730;-69